createdAt,value
2023-10-12T00:02:28.969Z,100364.27
2023-10-12T00:05:08.110Z,100355.84
2023-10-12T00:07:37.034Z,100349.67
2023-10-12T00:10:24.948Z,100343.58
2023-10-12T00:13:01.325Z,100340.23
2023-10-12T00:15:39.204Z,100337.29
2023-10-12T00:18:10.539Z,100331.28
2023-10-12T00:20:39.594Z,100323.40
2023-10-12T00:23:12.612Z,100318.09
2023-10-12T00:25:50.606Z,100317.40
2023-10-12T00:28:21.416Z,100308.33
2023-10-12T00:30:56.939Z,100300.60
2023-10-12T00:33:26.008Z,100295.15
2023-10-12T00:36:21.663Z,100283.70
2023-10-12T00:38:50.687Z,100278.35
2023-10-12T00:41:19.442Z,100278.56
2023-10-12T00:44:21.475Z,100274.06
2023-10-12T00:46:58.737Z,100273.40
2023-10-12T00:49:31.312Z,100276.58
2023-10-12T00:52:10.575Z,100281.20
2023-10-12T00:54:38.940Z,100281.40
2023-10-12T00:57:07.350Z,100277.62
2023-10-12T00:59:36.160Z,100273.54
2023-10-12T01:02:10.216Z,100279.15
2023-10-12T01:04:39.621Z,100274.84
2023-10-12T01:07:12.932Z,100269.73
2023-10-12T01:09:41.237Z,100260.91
2023-10-12T01:12:15.536Z,100263.33
2023-10-12T01:14:48.724Z,100272.16
2023-10-12T01:17:25.602Z,100269.84
2023-10-12T01:19:54.128Z,100265.41
2023-10-12T01:22:30.051Z,100260.33
2023-10-12T01:24:58.457Z,100259.71
2023-10-12T01:27:27.222Z,100258.82
2023-10-12T01:30:15.402Z,100253.48
2023-10-12T01:32:43.841Z,100248.23
2023-10-12T01:35:15.790Z,100249.20
2023-10-12T01:37:49.280Z,100253.58
2023-10-12T01:40:20.330Z,100252.95
2023-10-12T01:42:48.500Z,100248.45
2023-10-12T01:45:27.100Z,100251.61
2023-10-12T01:48:09.309Z,100246.08
2023-10-12T01:50:39.570Z,100245.32
2023-10-12T01:53:23.855Z,100243.40
2023-10-12T01:55:53.531Z,100245.92
2023-10-12T01:58:29.428Z,100247.35
2023-10-12T02:01:07.076Z,100248.55
2023-10-12T02:03:44.494Z,100249.05
2023-10-12T02:06:15.897Z,100248.65
2023-10-12T02:08:47.645Z,100248.21
2023-10-12T02:11:18.934Z,100240.80
2023-10-12T02:13:52.445Z,100236.59
2023-10-12T02:16:39.773Z,100233.59
2023-10-12T02:19:09.519Z,100234.58
2023-10-12T02:21:42.684Z,100228.96
2023-10-12T02:24:10.738Z,100218.80
2023-10-12T02:26:40.139Z,100219.84
2023-10-12T02:29:09.622Z,100213.64
2023-10-12T02:31:55.657Z,100209.51
2023-10-12T02:34:31.294Z,100209.84
2023-10-12T02:37:13.455Z,100206.09
2023-10-12T02:39:43.211Z,100202.46
2023-10-12T02:42:18.882Z,100202.64
2023-10-12T02:44:55.378Z,100199.92
2023-10-12T02:47:31.547Z,100197.21
2023-10-12T02:50:09.634Z,100200.14
2023-10-12T02:52:38.345Z,100199.30
2023-10-12T02:55:19.901Z,100200.71
2023-10-12T02:58:17.145Z,100199.75
2023-10-12T03:00:48.253Z,100207.50
2023-10-12T03:03:35.274Z,100196.92
2023-10-12T03:06:08.977Z,100200.29
2023-10-12T03:08:56.040Z,100192.41
2023-10-12T03:11:27.263Z,100197.87
2023-10-12T03:14:14.848Z,100194.30
2023-10-12T03:16:43.858Z,100193.75
2023-10-12T03:19:27.689Z,100191.80
2023-10-12T03:22:05.599Z,100191.58
2023-10-12T03:24:46.214Z,100188.63
2023-10-12T03:27:15.297Z,100180.48
2023-10-12T03:29:47.534Z,100180.06
2023-10-12T03:32:24.157Z,100176.15
2023-10-12T03:34:55.133Z,100175.84
2023-10-12T03:37:43.231Z,100174.69
2023-10-12T03:40:29.915Z,100178.18
2023-10-12T03:42:58.129Z,100176.23
2023-10-12T03:45:29.108Z,100176.94
2023-10-12T03:48:16.833Z,100173.10
2023-10-12T03:50:55.320Z,100170.27
2023-10-12T03:53:28.707Z,100167.77
2023-10-12T03:56:02.555Z,100169.61
2023-10-12T03:58:31.043Z,100170.23
2023-10-12T04:01:31.456Z,100173.39
2023-10-12T04:04:18.212Z,100167.36
2023-10-12T04:07:02.133Z,100162.24
2023-10-12T04:09:33.614Z,100161.41
2023-10-12T04:12:34.770Z,100160.36
2023-10-12T04:15:08.109Z,100161.19
2023-10-12T04:17:42.954Z,100158.06
2023-10-12T04:20:16.918Z,100160.77
2023-10-12T04:22:44.809Z,100163.06
2023-10-12T04:25:34.139Z,100163.35
2023-10-12T04:28:18.418Z,100161.76
2023-10-12T04:31:13.290Z,100164.69
2023-10-12T04:34:00.109Z,100165.48
2023-10-12T04:36:43.245Z,100165.78
2023-10-12T04:39:12.139Z,100169.73
2023-10-12T04:41:43.292Z,100164.78
2023-10-12T04:44:26.536Z,100161.66
2023-10-12T04:47:01.475Z,100153.63
2023-10-12T04:49:39.713Z,100154.85
2023-10-12T04:52:07.826Z,100155.18
2023-10-12T04:54:51.187Z,100158.56
2023-10-12T04:57:26.105Z,100164.10
2023-10-12T05:00:16.145Z,100163.88
2023-10-12T05:02:56.372Z,100167.35
2023-10-12T05:05:24.944Z,100168.79
2023-10-12T05:07:55.920Z,100162.96
2023-10-12T05:10:37.824Z,100163.16
2023-10-12T05:13:07.470Z,100158.19
2023-10-12T05:15:56.191Z,100157.15
2023-10-12T05:18:26.199Z,100154.89
2023-10-12T05:20:54.241Z,100153.08
2023-10-12T05:23:23.154Z,100153.27
2023-10-12T05:25:54.356Z,100153.85
2023-10-12T05:28:32.188Z,100151.72
2023-10-12T05:31:09.849Z,100148.16
2023-10-12T05:33:38.715Z,100143.64
2023-10-12T05:36:10.814Z,100141.55
2023-10-12T05:39:00.839Z,100138.65
2023-10-12T05:41:34.606Z,100153.20
2023-10-12T05:44:04.877Z,100159.10
2023-10-12T05:46:36.178Z,100162.39
2023-10-12T05:49:13.432Z,100164.88
2023-10-12T05:51:46.399Z,100164.54
2023-10-12T05:54:22.105Z,100165.60
2023-10-12T05:56:56.458Z,100158.29
2023-10-12T05:59:26.193Z,100156.77
2023-10-12T06:01:54.253Z,100154.14
2023-10-12T06:04:23.509Z,100153.58
2023-10-12T06:06:54.279Z,100150.04
2023-10-12T06:09:22.934Z,100147.20
2023-10-12T06:11:53.094Z,100143.36
2023-10-12T06:14:26.952Z,100143.44
2023-10-12T06:17:04.322Z,100144.93
2023-10-12T06:19:38.425Z,100145.88
2023-10-12T06:22:24.979Z,100149.85
2023-10-12T06:24:56.251Z,100152.94
2023-10-12T06:27:24.970Z,100147.71
2023-10-12T06:29:54.861Z,100152.44
2023-10-12T06:32:41.947Z,100146.27
2023-10-12T06:35:10.245Z,100149.55
2023-10-12T06:37:53.473Z,100149.45
2023-10-12T06:40:27.856Z,100155.27
2023-10-12T06:43:12.665Z,100151.80
2023-10-12T06:45:51.867Z,100143.09
2023-10-12T06:48:42.028Z,100140.02
2023-10-12T06:51:15.197Z,100142.50
2023-10-12T06:53:46.083Z,100147.06
2023-10-12T06:56:17.742Z,100144.27
2023-10-12T06:59:11.721Z,100142.66
2023-10-12T07:01:52.806Z,100134.61
2023-10-12T07:04:27.609Z,100141.83
2023-10-12T07:06:58.922Z,100139.11
2023-10-12T07:09:48.273Z,100138.38
2023-10-12T07:12:19.710Z,100136.66
2023-10-12T07:14:48.431Z,100133.92
2023-10-12T07:17:16.809Z,100131.08
2023-10-12T07:19:57.106Z,100129.10
2023-10-12T07:22:25.008Z,100125.02
2023-10-12T07:24:58.756Z,100121.43
2023-10-12T07:27:27.946Z,100118.09
2023-10-12T07:30:23.245Z,100109.25
2023-10-12T07:32:57.468Z,100106.04
2023-10-12T07:35:37.807Z,100105.39
2023-10-12T07:38:36.488Z,100102.15
2023-10-12T07:41:07.405Z,100101.45
2023-10-12T07:43:39.789Z,100092.01
2023-10-12T07:46:26.933Z,100091.03
2023-10-12T07:49:11.867Z,100092.95
2023-10-12T07:52:00.173Z,100084.93
2023-10-12T07:54:47.097Z,100085.30
2023-10-12T07:57:21.820Z,100083.30
2023-10-12T07:59:56.138Z,100079.45
2023-10-12T08:02:53.820Z,100081.50
2023-10-12T08:05:25.197Z,100072.51
2023-10-12T08:08:02.702Z,100078.70
2023-10-12T08:10:40.332Z,100072.33
2023-10-12T08:13:27.871Z,100072.61
2023-10-12T08:15:58.026Z,100074.72
2023-10-12T08:18:47.311Z,100072.44
2023-10-12T08:21:25.477Z,100074.31
2023-10-12T08:23:59.855Z,100073.51
2023-10-12T08:26:37.078Z,100071.02
2023-10-12T08:29:10.781Z,100066.98
2023-10-12T08:31:45.279Z,100068.52
2023-10-12T08:34:35.982Z,100067.73
2023-10-12T08:37:09.161Z,100064.31
2023-10-12T08:39:47.119Z,100062.14
2023-10-12T08:42:25.901Z,100057.11
2023-10-12T08:45:00.877Z,100054.11
2023-10-12T08:47:34.702Z,100062.67
2023-10-12T08:50:09.841Z,100054.18
2023-10-12T08:52:40.604Z,100057.29
2023-10-12T08:55:15.631Z,100056.13
2023-10-12T08:58:05.069Z,100052.49
2023-10-12T09:00:37.468Z,100051.55
2023-10-12T09:03:18.607Z,100045.16
2023-10-12T09:05:53.242Z,100044.05
2023-10-12T09:08:21.401Z,100044.35
2023-10-12T09:11:04.776Z,100036.09
2023-10-12T09:13:39.099Z,100038.15
2023-10-12T09:16:11.923Z,100039.25
2023-10-12T09:18:48.474Z,100033.04
2023-10-12T09:21:23.437Z,100033.58
2023-10-12T09:24:12.990Z,100028.15
2023-10-12T09:26:48.910Z,100023.22
2023-10-12T09:29:23.250Z,100013.95
2023-10-12T09:32:14.462Z,100007.12
2023-10-12T09:34:45.322Z,100005.98
2023-10-12T09:37:18.007Z,100003.05
2023-10-12T09:39:47.091Z,99997.82
2023-10-12T09:42:46.252Z,99998.77
2023-10-12T09:45:29.519Z,99996.29
2023-10-12T09:48:06.972Z,99994.48
2023-10-12T09:50:35.950Z,99987.22
2023-10-12T09:53:23.230Z,99983.33
2023-10-12T09:56:13.653Z,99980.90
2023-10-12T09:59:05.013Z,99981.27
2023-10-12T10:01:39.136Z,99980.79
2023-10-12T10:04:26.768Z,99977.54
2023-10-12T10:07:20.214Z,99970.13
2023-10-12T10:09:50.804Z,99957.98
2023-10-12T10:12:19.778Z,99949.79
2023-10-12T10:14:49.070Z,99945.88
2023-10-12T10:17:25.919Z,99943.27
2023-10-12T10:20:25.534Z,99932.48
2023-10-12T10:23:04.398Z,99930.01
2023-10-12T10:25:47.432Z,99928.23
2023-10-12T10:28:25.420Z,99922.58
2023-10-12T10:31:01.293Z,99919.33
2023-10-12T10:33:30.597Z,99918.81
2023-10-12T10:36:03.136Z,99906.98
2023-10-12T10:38:34.054Z,99904.04
2023-10-12T10:41:09.344Z,99904.36
2023-10-12T10:43:41.104Z,99898.70
2023-10-12T10:46:12.537Z,99897.38
2023-10-12T10:51:12.880Z,99903.69
2023-10-12T10:53:40.953Z,99902.75
2023-10-12T10:56:17.880Z,99895.98
2023-10-12T10:58:47.812Z,99893.66
2023-10-12T11:01:16.492Z,99892.66
2023-10-12T11:03:48.039Z,99889.86
2023-10-12T11:06:25.667Z,99882.86
2023-10-12T11:09:14.119Z,99879.45
2023-10-12T11:11:50.942Z,99883.73
2023-10-12T11:14:23.703Z,99876.05
2023-10-12T11:16:52.772Z,99872.90
2023-10-12T11:19:22.984Z,99863.05
2023-10-12T11:21:54.366Z,99860.14
2023-10-12T11:24:25.604Z,99861.34
2023-10-12T11:26:56.189Z,99861.16
2023-10-12T11:29:27.702Z,99858.21
2023-10-12T11:32:10.481Z,99854.98
2023-10-12T11:34:46.439Z,99850.66
2023-10-12T11:37:15.933Z,99843.34
2023-10-12T11:39:48.145Z,99845.04
2023-10-12T11:42:16.435Z,99840.01
2023-10-12T11:44:48.629Z,99836.04
2023-10-12T11:47:26.091Z,99837.86
2023-10-12T11:49:58.440Z,99835.72
2023-10-12T11:52:36.052Z,99829.95
2023-10-12T11:55:21.767Z,99826.84
2023-10-12T11:57:56.777Z,99827.14
2023-10-12T12:00:32.762Z,99826.85
2023-10-12T12:03:04.616Z,99820.64
2023-10-12T12:05:33.827Z,99819.96
2023-10-12T12:08:07.882Z,99814.28
2023-10-12T12:10:55.700Z,99805.35
2023-10-12T12:13:24.989Z,99795.14
2023-10-12T12:15:57.401Z,99793.73
2023-10-12T12:18:25.828Z,99792.09
2023-10-12T12:20:58.198Z,99791.06
2023-10-12T12:23:29.658Z,99786.80
2023-10-12T12:26:09.556Z,99787.07
2023-10-12T12:28:44.869Z,99782.36
2023-10-12T12:31:16.933Z,99779.42
2023-10-12T12:33:45.989Z,99773.09
2023-10-12T12:36:14.699Z,99766.08
2023-10-12T12:38:42.779Z,99761.98
2023-10-12T12:41:20.084Z,99758.68
2023-10-12T12:43:48.927Z,99757.34
2023-10-12T12:46:20.947Z,99764.11
2023-10-12T12:48:52.397Z,99754.38
2023-10-12T12:51:20.624Z,99752.52
2023-10-12T12:53:51.745Z,99744.91
2023-10-12T12:56:23.544Z,99744.45
2023-10-12T12:58:53.528Z,99740.36
2023-10-12T13:01:26.050Z,99743.11
2023-10-12T13:03:57.160Z,99741.58
2023-10-12T13:06:26.631Z,99745.30
2023-10-12T13:08:54.593Z,99744.18
2023-10-12T13:11:23.055Z,99745.80
2023-10-12T13:13:51.148Z,99742.52
2023-10-12T13:16:19.831Z,99742.38
2023-10-12T13:18:49.132Z,99740.95
2023-10-12T13:21:18.416Z,99739.34
2023-10-12T13:23:47.166Z,99736.64
2023-10-12T13:26:19.197Z,99739.77
2023-10-12T13:28:47.635Z,99738.95
2023-10-12T13:31:16.215Z,99736.45
2023-10-12T13:33:45.070Z,99731.44
2023-10-12T13:36:13.804Z,99727.30
2023-10-12T13:38:43.785Z,99729.29
2023-10-12T13:41:13.251Z,99731.48
2023-10-12T13:43:41.626Z,99728.67
2023-10-12T13:46:10.598Z,99730.70
2023-10-12T13:48:40.039Z,99731.33
2023-10-12T13:51:25.987Z,99729.65
2023-10-12T13:53:54.947Z,99730.81
2023-10-12T13:56:26.004Z,99730.35
2023-10-12T13:59:00.082Z,99736.09
2023-10-12T14:01:35.121Z,99734.55
2023-10-12T14:04:24.573Z,99736.00
2023-10-12T14:06:54.826Z,99737.27
2023-10-12T14:09:29.367Z,99736.48
2023-10-12T14:11:57.657Z,99741.54
2023-10-12T14:14:26.078Z,99740.23
2023-10-12T14:16:54.300Z,99741.65
2023-10-12T14:19:27.534Z,99740.15
2023-10-12T14:21:56.191Z,99738.64
2023-10-12T14:24:25.614Z,99731.54
2023-10-12T14:26:57.064Z,99738.93
2023-10-12T14:29:26.991Z,99732.73
2023-10-12T14:31:55.936Z,99739.98
2023-10-12T14:34:24.363Z,99738.79
2023-10-12T14:36:52.496Z,99740.40
2023-10-12T14:39:31.498Z,99741.38
2023-10-12T14:41:59.693Z,99746.13
2023-10-12T14:44:29.178Z,99745.66
2023-10-12T14:46:59.992Z,99744.94
2023-10-12T14:49:28.458Z,99746.67
2023-10-12T14:51:56.834Z,99748.06
2023-10-12T14:54:24.811Z,99746.70
2023-10-12T14:56:55.295Z,99743.38
2023-10-12T14:59:23.402Z,99748.99
2023-10-12T15:01:53.232Z,99748.08
2023-10-12T15:04:22.230Z,99759.47
2023-10-12T15:06:50.976Z,99757.23
2023-10-12T15:09:25.622Z,99758.23
2023-10-12T15:11:53.939Z,99751.59
2023-10-12T15:14:22.003Z,99757.15
2023-10-12T15:16:51.729Z,99756.39
2023-10-12T15:19:21.105Z,99756.63
2023-10-12T15:21:50.765Z,99756.08
2023-10-12T15:24:18.884Z,99748.95
2023-10-12T15:26:47.100Z,99745.33
2023-10-12T15:29:16.444Z,99752.30
2023-10-12T15:31:44.390Z,99754.36
2023-10-12T15:34:14.918Z,99758.55
2023-10-12T15:36:46.354Z,99760.52
2023-10-12T15:39:17.758Z,99761.02
2023-10-12T15:41:45.857Z,99764.10
2023-10-12T15:44:14.061Z,99765.70
2023-10-12T15:46:42.122Z,99766.64
2023-10-12T15:49:10.649Z,99764.28
2023-10-12T15:51:38.842Z,99765.39
2023-10-12T15:54:07.567Z,99762.02
2023-10-12T15:56:35.947Z,99756.87
2023-10-12T15:59:05.594Z,99762.24
2023-10-12T16:01:33.826Z,99772.28
2023-10-12T16:04:04.599Z,99769.70
2023-10-12T16:06:35.792Z,99771.68
2023-10-12T16:09:06.516Z,99773.70
2023-10-12T16:11:40.075Z,99770.06
2023-10-12T16:14:08.332Z,99770.77
2023-10-12T16:16:37.537Z,99769.88
2023-10-12T16:19:06.694Z,99771.64
2023-10-12T16:21:35.440Z,99773.14
2023-10-12T16:24:06.389Z,99777.17
2023-10-12T16:26:35.941Z,99778.94
2023-10-12T16:29:05.985Z,99780.07
2023-10-12T16:31:38.903Z,99781.67
2023-10-12T16:34:10.000Z,99780.39
2023-10-12T16:36:38.241Z,99779.47
2023-10-12T16:39:08.288Z,99775.25
2023-10-12T16:41:36.568Z,99770.35
2023-10-12T16:44:04.828Z,99764.64
2023-10-12T16:46:33.910Z,99768.42
2023-10-12T16:49:02.644Z,99767.76
2023-10-12T16:51:30.938Z,99759.96
2023-10-12T16:53:59.230Z,99760.38
2023-10-12T16:56:28.483Z,99763.66
2023-10-12T16:58:56.614Z,99764.11
2023-10-12T17:01:25.727Z,99762.01
2023-10-12T17:03:54.308Z,99759.41
2023-10-12T17:06:22.632Z,99762.80
2023-10-12T17:08:51.625Z,99769.02
2023-10-12T17:11:19.794Z,99770.72
2023-10-12T17:13:47.940Z,99769.45
2023-10-12T17:16:16.347Z,99769.31
2023-10-12T17:18:47.466Z,99771.61
2023-10-12T17:21:15.641Z,99772.52
2023-10-12T17:23:47.012Z,99769.11
2023-10-12T17:26:15.239Z,99771.27
2023-10-12T17:28:43.333Z,99773.45
2023-10-12T17:31:11.649Z,99778.79
2023-10-12T17:33:40.375Z,99776.86
2023-10-12T17:36:12.714Z,99774.60
2023-10-12T17:38:41.041Z,99775.36
2023-10-12T17:41:10.718Z,99770.75
2023-10-12T17:43:42.431Z,99771.42
2023-10-12T17:46:11.876Z,99770.92
2023-10-12T17:48:40.880Z,99769.98
2023-10-12T17:51:19.400Z,99769.48
2023-10-12T17:53:49.743Z,99773.42
2023-10-12T17:56:18.733Z,99778.23
2023-10-12T17:58:47.029Z,99779.60
2023-10-12T18:01:16.015Z,99779.48
2023-10-12T18:03:44.521Z,99777.73
2023-10-12T18:06:13.466Z,99774.33
2023-10-12T18:08:42.110Z,99775.30
2023-10-12T18:11:12.026Z,99774.92
2023-10-12T18:13:41.172Z,99772.29
2023-10-12T18:16:12.085Z,99777.28
2023-10-12T18:18:40.554Z,99780.66
2023-10-12T18:21:09.476Z,99779.33
2023-10-12T18:23:41.339Z,99778.94
2023-10-12T18:26:11.865Z,99777.45
2023-10-12T18:28:40.185Z,99777.34
2023-10-12T18:31:11.231Z,99780.96
2023-10-12T18:33:41.076Z,99783.04
2023-10-12T18:36:11.524Z,99783.42
2023-10-12T18:38:41.689Z,99784.49
2023-10-12T18:41:11.510Z,99785.27
2023-10-12T18:43:40.700Z,99785.08
2023-10-12T18:46:09.307Z,99790.17
2023-10-12T18:48:37.864Z,99789.34
2023-10-12T18:51:08.661Z,99787.05
2023-10-12T18:53:42.146Z,99785.77
2023-10-12T18:56:12.022Z,99789.51
2023-10-12T18:58:40.909Z,99789.05
2023-10-12T19:01:11.169Z,99787.20
2023-10-12T19:03:39.893Z,99787.60
2023-10-12T19:06:11.451Z,99791.17
2023-10-12T19:08:39.854Z,99794.33
2023-10-12T19:11:09.141Z,99791.81
2023-10-12T19:13:41.412Z,99795.68
2023-10-12T19:16:17.674Z,99792.73
2023-10-12T19:18:46.646Z,99795.05
2023-10-12T19:21:15.448Z,99794.39
2023-10-12T19:23:45.278Z,99793.09
2023-10-12T19:26:13.788Z,99792.80
2023-10-12T19:28:42.691Z,99794.35
2023-10-12T19:31:14.117Z,99789.27
2023-10-12T19:33:43.460Z,99795.16
2023-10-12T19:36:12.698Z,99793.61
2023-10-12T19:38:41.620Z,99793.79
2023-10-12T19:41:10.618Z,99788.38
2023-10-12T19:43:39.287Z,99790.42
2023-10-12T19:46:12.107Z,99793.05
2023-10-12T19:48:41.026Z,99792.02
2023-10-12T19:51:17.980Z,99796.73
2023-10-12T19:53:47.624Z,99798.55
2023-10-12T19:56:17.340Z,99793.63
2023-10-12T19:58:50.181Z,99793.67
2023-10-12T20:01:22.346Z,99791.59
2023-10-12T20:03:51.079Z,99793.29
2023-10-12T20:06:21.248Z,99792.48
2023-10-12T20:08:50.475Z,99793.02
2023-10-12T20:11:19.374Z,99797.61
2023-10-12T20:13:50.710Z,99797.60
2023-10-12T20:16:21.881Z,99797.70
2023-10-12T20:18:50.857Z,99803.16
2023-10-12T20:21:19.187Z,99802.34
2023-10-12T20:23:47.334Z,99801.98
2023-10-12T20:26:15.401Z,99802.04
2023-10-12T20:28:43.618Z,99800.39
2023-10-12T20:31:12.267Z,99796.02
2023-10-12T20:33:41.061Z,99803.56
2023-10-12T20:36:09.315Z,99811.89
2023-10-12T20:38:37.385Z,99813.34
2023-10-12T20:41:08.412Z,99807.97
2023-10-12T20:43:36.764Z,99816.72
2023-10-12T20:46:11.450Z,99818.39
2023-10-12T20:48:40.535Z,99818.36
2023-10-12T20:51:09.176Z,99818.33
2023-10-12T20:53:37.815Z,99818.50
2023-10-12T20:56:28.327Z,99815.03
2023-10-12T20:59:31.968Z,99814.58
2023-10-12T21:02:03.226Z,99814.71
2023-10-12T21:04:34.398Z,99813.16
2023-10-12T21:07:05.746Z,99817.32
2023-10-12T21:09:34.386Z,99819.94
2023-10-12T21:12:15.573Z,99820.60
2023-10-12T21:14:44.090Z,99816.80
2023-10-12T21:17:21.313Z,99818.94
2023-10-12T21:19:55.896Z,99819.46
2023-10-12T21:22:29.238Z,99820.16
2023-10-12T21:24:58.470Z,99822.16
2023-10-12T21:27:38.745Z,99828.77
2023-10-12T21:30:07.897Z,99827.00
2023-10-12T21:32:41.266Z,99831.09
2023-10-12T21:35:10.745Z,99835.86
2023-10-12T21:37:39.661Z,99840.39
2023-10-12T21:40:27.662Z,99841.88
2023-10-12T21:42:57.995Z,99839.88
2023-10-12T21:45:26.577Z,99840.45
2023-10-12T21:47:54.985Z,99841.88
2023-10-12T21:50:26.292Z,99849.06
2023-10-12T21:52:54.353Z,99850.23
2023-10-12T21:55:22.595Z,99853.70
2023-10-12T21:57:50.898Z,99856.18
2023-10-12T22:00:33.900Z,99855.20
2023-10-12T22:03:02.393Z,99859.66
2023-10-12T22:05:30.772Z,99863.41
2023-10-12T22:07:58.962Z,99866.34
2023-10-12T22:10:30.674Z,99867.18
2023-10-12T22:13:07.474Z,99870.14
2023-10-12T22:15:54.873Z,99876.99
2023-10-12T22:18:23.424Z,99882.25
2023-10-12T22:20:57.778Z,99887.06
2023-10-12T22:23:26.086Z,99888.70
2023-10-12T22:25:54.382Z,99891.15
2023-10-12T22:28:22.738Z,99885.14
2023-10-12T22:30:54.571Z,99887.91
2023-10-12T22:33:22.915Z,99886.50
2023-10-12T22:36:01.093Z,99886.23
2023-10-12T22:38:29.916Z,99878.05
2023-10-12T22:41:01.989Z,99876.58
2023-10-12T22:43:30.886Z,99881.23
2023-10-12T22:46:01.953Z,99880.20
2023-10-12T22:48:30.490Z,99892.21
2023-10-12T22:50:58.566Z,99893.91
2023-10-12T22:53:26.893Z,99896.02
2023-10-12T22:55:55.002Z,99899.14
2023-10-12T22:58:23.138Z,99903.51
2023-10-12T23:00:51.839Z,99902.45
2023-10-12T23:03:19.986Z,99898.30
2023-10-12T23:05:48.046Z,99895.25
2023-10-12T23:08:16.640Z,99886.67
2023-10-12T23:10:48.241Z,99881.20
2023-10-12T23:13:16.651Z,99881.25
2023-10-12T23:15:45.469Z,99887.94
2023-10-12T23:18:20.106Z,99888.81
2023-10-12T23:20:48.906Z,99892.23
2023-10-12T23:23:19.412Z,99893.48
2023-10-12T23:25:51.007Z,99902.58
2023-10-12T23:28:19.189Z,99910.20
2023-10-12T23:30:54.929Z,99913.15
2023-10-12T23:33:38.424Z,99915.97
2023-10-12T23:36:07.461Z,99912.73
2023-10-12T23:38:40.677Z,99909.17
2023-10-12T23:41:14.648Z,99906.73
2023-10-12T23:43:56.681Z,99906.15
2023-10-12T23:46:25.090Z,99900.30
2023-10-12T23:48:59.123Z,99902.75
2023-10-12T23:51:31.307Z,99909.85
2023-10-12T23:54:00.188Z,99912.06
2023-10-12T23:56:31.140Z,99913.84
2023-10-12T23:58:59.737Z,99913.32
